createdAt,value
2018-05-31T00:02:02.160Z,1.93
2018-05-31T00:04:29.189Z,1.60
2018-05-31T00:06:56.236Z,1.30
2018-05-31T00:09:22.521Z,1.60
2018-05-31T00:11:48.864Z,1.30
2018-05-31T00:14:15.125Z,1.40
2018-05-31T00:16:42.167Z,1.70
2018-05-31T00:19:08.436Z,1.20
2018-05-31T00:21:34.736Z,1.87
2018-05-31T00:24:01.019Z,1.40
2018-05-31T00:26:27.321Z,1.17
2018-05-31T00:28:54.479Z,1.87
2018-05-31T00:31:21.495Z,2.00
2018-05-31T00:33:47.842Z,1.77
2018-05-31T00:36:14.097Z,1.60
2018-05-31T00:38:40.395Z,1.40
2018-05-31T00:41:07.416Z,1.50
2018-05-31T00:43:33.710Z,1.30
2018-05-31T00:46:00.728Z,1.70
2018-05-31T00:48:27.763Z,1.60
2018-05-31T00:50:54.140Z,2.17
2018-05-31T00:53:20.442Z,2.30
2018-05-31T00:55:59.791Z,1.60
2018-05-31T00:58:26.975Z,1.03
2018-05-31T01:00:53.251Z,3.40
2018-05-31T01:03:20.335Z,2.30
2018-05-31T01:05:47.361Z,2.93
2018-05-31T01:08:13.668Z,2.80
2018-05-31T01:10:39.972Z,3.13
2018-05-31T01:13:06.267Z,2.93
2018-05-31T01:15:33.280Z,3.13
2018-05-31T01:17:59.595Z,2.27
2018-05-31T01:20:25.900Z,2.70
2018-05-31T01:22:52.196Z,1.70
2018-05-31T01:25:19.241Z,1.40
2018-05-31T01:27:46.264Z,1.73
2018-05-31T01:30:12.551Z,2.00
2018-05-31T01:32:38.828Z,2.20
2018-05-31T01:35:05.128Z,2.50
2018-05-31T01:37:31.472Z,1.40
2018-05-31T01:39:57.744Z,1.47
2018-05-31T01:42:24.021Z,1.60
2018-05-31T01:44:50.317Z,1.30
2018-05-31T01:47:17.343Z,1.33
2018-05-31T01:49:43.661Z,1.30
2018-05-31T01:52:09.915Z,1.67
2018-05-31T01:54:36.943Z,1.90
2018-05-31T01:57:07.095Z,1.47
2018-05-31T01:59:34.116Z,1.07
2018-05-31T02:02:00.419Z,1.70
2018-05-31T02:04:26.692Z,1.23
2018-05-31T02:06:52.979Z,2.10
2018-05-31T02:09:19.266Z,1.90
2018-05-31T02:11:46.323Z,2.60
2018-05-31T02:14:13.343Z,2.40
2018-05-31T02:16:39.623Z,3.33
2018-05-31T02:19:05.909Z,2.23
2018-05-31T02:21:32.188Z,2.80
2018-05-31T02:23:58.483Z,3.90
2018-05-31T02:26:24.774Z,4.33
2018-05-31T02:28:51.804Z,3.23
2018-05-31T02:31:18.107Z,3.43
2018-05-31T02:33:44.394Z,2.83
2018-05-31T02:36:10.669Z,2.87
2018-05-31T02:38:37.707Z,1.90
2018-05-31T02:41:04.732Z,2.13
2018-05-31T02:43:31.742Z,1.90
2018-05-31T02:45:58.074Z,4.47
2018-05-31T02:48:24.350Z,3.60
2018-05-31T02:50:50.675Z,4.30
2018-05-31T02:53:16.989Z,5.47
2018-05-31T02:55:43.259Z,3.47
2018-05-31T02:58:10.297Z,4.07
2018-05-31T03:00:37.308Z,4.30
2018-05-31T03:03:03.590Z,2.77
2018-05-31T03:05:29.899Z,3.13
2018-05-31T03:07:56.183Z,3.27
2018-05-31T03:10:22.429Z,3.43
2018-05-31T03:12:48.728Z,4.23
2018-05-31T03:15:15.004Z,3.20
2018-05-31T03:17:42.063Z,5.30
2018-05-31T03:20:08.339Z,4.60
2018-05-31T03:22:34.619Z,4.90
2018-05-31T03:25:00.985Z,5.17
2018-05-31T03:27:27.986Z,3.30
2018-05-31T03:29:54.296Z,3.03
2018-05-31T03:32:20.583Z,2.90
2018-05-31T03:34:47.634Z,3.40
2018-05-31T03:37:13.922Z,2.10
2018-05-31T03:39:43.265Z,3.40
2018-05-31T03:42:10.289Z,3.43
2018-05-31T03:44:36.619Z,4.03
2018-05-31T03:47:02.915Z,2.73
2018-05-31T03:49:29.207Z,3.53
2018-05-31T03:51:56.240Z,2.80
2018-05-31T03:54:22.511Z,2.37
2018-05-31T03:56:48.826Z,2.13
2018-05-31T03:59:15.879Z,2.20
2018-05-31T04:01:42.903Z,2.77
2018-05-31T04:04:09.199Z,2.50
2018-05-31T04:06:35.467Z,3.33
2018-05-31T04:09:01.811Z,3.67
2018-05-31T04:11:28.832Z,3.10
2018-05-31T04:13:55.299Z,3.60
2018-05-31T04:16:21.583Z,2.47
2018-05-31T04:18:47.892Z,3.93
2018-05-31T04:21:14.176Z,3.43
2018-05-31T04:23:40.566Z,4.17
2018-05-31T04:26:06.882Z,5.43
2018-05-31T04:28:33.198Z,5.23
2018-05-31T04:30:59.488Z,4.23
2018-05-31T04:33:25.784Z,6.10
2018-05-31T04:35:52.092Z,6.23
2018-05-31T04:38:19.120Z,5.03
2018-05-31T04:40:45.387Z,6.07
2018-05-31T04:43:11.676Z,4.37
2018-05-31T04:45:37.940Z,3.37
2018-05-31T04:48:04.273Z,4.70
2018-05-31T04:50:30.599Z,4.13
2018-05-31T04:52:56.922Z,2.20
2018-05-31T04:55:23.294Z,3.40
2018-05-31T04:57:49.607Z,5.50
2018-05-31T05:00:15.892Z,4.97
2018-05-31T05:02:42.229Z,5.37
2018-05-31T05:05:09.321Z,5.10
2018-05-31T05:07:35.835Z,5.27
2018-05-31T05:10:02.282Z,4.70
2018-05-31T05:12:34.631Z,4.17
2018-05-31T05:15:00.994Z,5.87
2018-05-31T05:17:42.640Z,4.20
2018-05-31T05:20:08.999Z,5.53
2018-05-31T05:22:41.325Z,5.17
2018-05-31T05:25:07.615Z,4.20
2018-05-31T05:27:34.669Z,3.90
2018-05-31T05:30:01.063Z,4.70
2018-05-31T05:32:27.346Z,4.00
2018-05-31T05:34:54.714Z,5.00
2018-05-31T05:37:28.258Z,6.07
2018-05-31T05:40:02.495Z,4.60
2018-05-31T05:42:48.075Z,4.97
2018-05-31T05:45:23.474Z,5.00
2018-05-31T05:47:53.747Z,4.93
2018-05-31T05:50:39.175Z,5.53
2018-05-31T05:53:05.499Z,4.60
2018-05-31T05:55:31.853Z,5.73
2018-05-31T05:58:02.145Z,5.37
2018-05-31T06:00:33.463Z,5.33
2018-05-31T06:03:07.531Z,5.80
2018-05-31T06:05:36.819Z,4.60
2018-05-31T06:08:05.159Z,7.00
2018-05-31T06:10:32.540Z,6.57
2018-05-31T06:13:01.891Z,6.27
2018-05-31T06:15:29.035Z,5.50
2018-05-31T06:18:08.621Z,5.40
2018-05-31T06:20:34.918Z,5.83
2018-05-31T06:23:01.262Z,5.20
2018-05-31T06:25:28.323Z,4.30
2018-05-31T06:27:54.632Z,3.60
2018-05-31T06:30:21.665Z,3.00
2018-05-31T06:32:47.966Z,3.47
2018-05-31T06:35:15.019Z,4.17
2018-05-31T06:37:41.329Z,4.10
2018-05-31T06:40:07.627Z,4.87
2018-05-31T06:42:34.673Z,5.40
2018-05-31T06:45:00.989Z,5.60
2018-05-31T06:47:27.286Z,6.10
2018-05-31T06:49:54.652Z,4.50
2018-05-31T06:52:23.055Z,5.03
2018-05-31T06:54:49.420Z,5.53
2018-05-31T06:57:26.841Z,6.10
2018-05-31T06:59:53.157Z,5.80
2018-05-31T07:02:31.434Z,4.67
2018-05-31T07:04:57.984Z,4.80
2018-05-31T07:07:25.279Z,4.83
2018-05-31T07:09:59.662Z,6.07
2018-05-31T07:12:26.939Z,6.20
2018-05-31T07:14:53.597Z,4.70
2018-05-31T07:17:20.002Z,6.53
2018-05-31T07:19:47.032Z,6.03
2018-05-31T07:22:14.088Z,5.10
2018-05-31T07:24:40.352Z,6.30
2018-05-31T07:27:06.640Z,5.27
2018-05-31T07:29:33.679Z,5.10
2018-05-31T07:31:59.949Z,4.80
2018-05-31T07:34:26.275Z,4.63
2018-05-31T07:36:52.575Z,5.07
2018-05-31T07:39:18.855Z,4.80
2018-05-31T07:41:45.239Z,4.40
2018-05-31T07:44:12.321Z,4.30
2018-05-31T07:46:38.611Z,4.63
2018-05-31T07:49:04.919Z,4.60
2018-05-31T07:51:31.206Z,5.33
2018-05-31T07:53:58.299Z,4.00
2018-05-31T07:56:24.609Z,5.03
2018-05-31T07:58:50.903Z,4.30
2018-05-31T08:01:17.932Z,4.30
2018-05-31T08:03:44.211Z,4.47
2018-05-31T08:06:10.488Z,4.97
2018-05-31T08:08:36.843Z,4.37
2018-05-31T08:11:03.123Z,4.67
2018-05-31T08:13:29.431Z,4.00
2018-05-31T08:15:55.752Z,4.27
2018-05-31T08:18:22.798Z,3.80
2018-05-31T08:20:49.821Z,4.85
2018-05-31T08:23:16.093Z,4.37
2018-05-31T08:25:42.372Z,3.72
2018-05-31T08:28:08.715Z,4.20
2018-05-31T08:30:34.940Z,4.00
2018-05-31T08:33:01.250Z,4.03
2018-05-31T08:35:27.545Z,4.00
2018-05-31T08:37:53.831Z,4.43
2018-05-31T08:40:20.126Z,4.65
2018-05-31T08:42:50.296Z,4.30
2018-05-31T08:45:16.731Z,4.70
2018-05-31T08:47:43.020Z,3.90
2018-05-31T08:50:09.291Z,3.58
2018-05-31T08:52:35.564Z,3.20
2018-05-31T08:55:01.868Z,3.83
2018-05-31T08:57:28.894Z,4.62
2018-05-31T08:59:55.147Z,3.40
2018-05-31T09:02:22.180Z,4.15
2018-05-31T09:04:49.216Z,3.75
2018-05-31T09:07:15.504Z,3.85
2018-05-31T09:09:41.831Z,4.40
2018-05-31T09:12:08.180Z,4.37
2018-05-31T09:14:34.485Z,3.42
2018-05-31T09:17:00.770Z,3.90
2018-05-31T09:19:27.031Z,3.90
2018-05-31T09:21:54.066Z,4.78
2018-05-31T09:24:22.195Z,4.15
2018-05-31T09:26:48.506Z,4.30
2018-05-31T09:29:14.793Z,3.60
2018-05-31T09:31:41.112Z,4.95
2018-05-31T09:34:14.441Z,5.07
2018-05-31T09:36:42.578Z,4.20
2018-05-31T09:39:10.923Z,4.68
2018-05-31T09:41:56.841Z,3.70
2018-05-31T09:44:23.117Z,3.78
2018-05-31T09:49:46.964Z,3.50
2018-05-31T09:52:23.657Z,4.57
2018-05-31T09:55:07.459Z,5.80
2018-05-31T09:57:33.762Z,4.62
2018-05-31T10:00:06.463Z,4.28
2018-05-31T10:02:42.903Z,4.03
2018-05-31T10:05:19.282Z,4.15
2018-05-31T10:10:50.233Z,5.22
2018-05-31T10:13:17.248Z,4.53
2018-05-31T10:15:53.736Z,4.43
2018-05-31T10:18:36.307Z,5.22
2018-05-31T10:21:06.834Z,4.47
2018-05-31T10:23:39.247Z,4.10
2018-05-31T10:26:07.312Z,4.72
2018-05-31T10:28:33.640Z,4.05
2018-05-31T10:31:06.131Z,4.28
2018-05-31T10:33:39.003Z,4.47
2018-05-31T10:36:09.291Z,5.45
2018-05-31T10:38:37.556Z,4.90
2018-05-31T10:41:13.077Z,4.65
2018-05-31T10:43:46.465Z,5.78
2018-05-31T10:46:14.928Z,4.25
2018-05-31T10:48:51.267Z,5.28
2018-05-31T10:51:19.665Z,5.20
2018-05-31T10:53:46.253Z,4.12
2018-05-31T10:56:19.803Z,5.03
2018-05-31T10:58:48.950Z,5.43
2018-05-31T11:01:18.178Z,3.70
2018-05-31T11:03:44.460Z,5.03
2018-05-31T11:06:15.128Z,3.78
2018-05-31T11:08:47.248Z,4.30
2018-05-31T11:11:16.885Z,3.83
2018-05-31T11:14:03.912Z,4.68
2018-05-31T11:16:43.377Z,3.83
2018-05-31T11:19:18.945Z,4.80
2018-05-31T11:21:52.436Z,4.97
2018-05-31T11:24:33.477Z,4.20
2018-05-31T11:26:59.738Z,6.85
2018-05-31T11:29:26.028Z,9.90
2018-05-31T11:31:56.219Z,5.40
2018-05-31T11:34:23.251Z,4.30
2018-05-31T11:36:49.552Z,4.32
2018-05-31T11:39:15.832Z,4.40
2018-05-31T11:41:42.879Z,4.28
2018-05-31T11:44:09.165Z,5.20
2018-05-31T11:46:35.427Z,5.10
2018-05-31T11:49:01.693Z,4.60
2018-05-31T11:51:27.969Z,4.62
2018-05-31T11:53:54.265Z,7.57
2018-05-31T11:56:20.730Z,4.87
2018-05-31T11:58:47.001Z,5.15
2018-05-31T12:01:13.403Z,4.40
2018-05-31T12:03:39.717Z,4.10
2018-05-31T12:06:05.990Z,3.80
2018-05-31T12:08:32.315Z,4.12
2018-05-31T12:10:58.610Z,4.40
2018-05-31T12:13:24.877Z,3.10
2018-05-31T12:15:51.203Z,3.00
2018-05-31T12:18:17.485Z,3.62
2018-05-31T12:20:43.788Z,4.20
2018-05-31T12:23:10.162Z,4.12
2018-05-31T12:25:36.658Z,4.05
2018-05-31T12:28:03.995Z,3.78
2018-05-31T12:30:30.268Z,3.95
2018-05-31T12:32:56.854Z,3.75
2018-05-31T12:35:23.155Z,3.65
2018-05-31T12:37:49.465Z,3.70
2018-05-31T12:40:15.747Z,3.30
2018-05-31T12:42:42.789Z,3.15
2018-05-31T12:45:09.792Z,3.87
2018-05-31T12:47:36.052Z,3.33
2018-05-31T12:50:02.365Z,3.33
2018-05-31T12:52:28.656Z,3.65
2018-05-31T12:54:54.962Z,3.28
2018-05-31T12:57:22.007Z,3.33
2018-05-31T12:59:48.295Z,3.70
2018-05-31T13:02:14.589Z,3.85
2018-05-31T13:04:40.891Z,3.70
2018-05-31T13:07:07.899Z,3.47
2018-05-31T13:09:34.239Z,3.95
2018-05-31T13:12:00.560Z,4.53
2018-05-31T13:14:26.861Z,4.12
2018-05-31T13:16:53.186Z,4.25
2018-05-31T13:19:19.467Z,3.60
2018-05-31T13:21:45.729Z,2.90
2018-05-31T13:24:12.038Z,3.33
2018-05-31T13:26:39.349Z,3.55
2018-05-31T13:29:05.641Z,3.92
2018-05-31T13:31:36.543Z,4.32
2018-05-31T13:34:02.846Z,4.03
2018-05-31T13:36:29.144Z,4.35
2018-05-31T13:38:55.499Z,3.77
2018-05-31T13:41:21.832Z,3.62
2018-05-31T13:43:48.137Z,2.47
2018-05-31T13:46:14.444Z,3.10
2018-05-31T13:48:40.691Z,2.50
2018-05-31T13:51:07.695Z,3.85
2018-05-31T13:53:34.002Z,4.03
2018-05-31T13:56:00.325Z,5.12
2018-05-31T13:58:26.647Z,4.62
2018-05-31T14:00:52.919Z,4.53
2018-05-31T14:03:19.218Z,4.30
2018-05-31T14:05:45.544Z,4.53
2018-05-31T14:08:11.855Z,4.55
2018-05-31T14:10:38.144Z,4.33
2018-05-31T14:13:04.424Z,3.40
2018-05-31T14:15:30.731Z,3.50
2018-05-31T14:17:57.755Z,3.30
2018-05-31T14:20:24.019Z,3.30
2018-05-31T14:22:50.368Z,3.25
2018-05-31T14:25:17.673Z,3.08
2018-05-31T14:27:44.002Z,3.50
2018-05-31T14:30:10.256Z,3.55
2018-05-31T14:32:37.299Z,3.47
2018-05-31T14:35:03.579Z,3.05
2018-05-31T14:37:29.867Z,3.25
2018-05-31T14:39:56.940Z,3.35
2018-05-31T14:42:23.223Z,3.40
2018-05-31T14:44:49.487Z,2.40
2018-05-31T14:47:15.840Z,3.70
2018-05-31T14:49:42.106Z,3.45
2018-05-31T14:52:08.413Z,3.85
2018-05-31T14:54:34.703Z,2.97
2018-05-31T14:57:01.727Z,3.78
2018-05-31T14:59:28.007Z,3.60
2018-05-31T15:01:54.276Z,3.40
2018-05-31T15:04:21.437Z,4.07
2018-05-31T15:06:48.663Z,3.92
2018-05-31T15:09:14.962Z,3.75
2018-05-31T15:11:41.375Z,2.90
2018-05-31T15:14:08.583Z,2.33
2018-05-31T15:16:34.863Z,2.80
2018-05-31T15:19:02.193Z,2.70
2018-05-31T15:21:28.636Z,3.20
2018-05-31T15:23:55.663Z,2.60
2018-05-31T15:26:21.944Z,2.80
2018-05-31T15:28:48.341Z,3.70
2018-05-31T15:31:15.362Z,3.45
2018-05-31T15:33:41.652Z,2.78
2018-05-31T15:36:08.097Z,3.20
2018-05-31T15:38:34.384Z,4.40
2018-05-31T15:41:01.411Z,4.45
2018-05-31T15:43:28.438Z,4.03
2018-05-31T15:45:54.752Z,4.50
2018-05-31T15:48:21.071Z,4.33
2018-05-31T15:50:47.363Z,4.50
2018-05-31T15:53:13.629Z,3.93
2018-05-31T15:55:39.899Z,3.23
2018-05-31T15:58:06.196Z,3.20
2018-05-31T16:00:32.487Z,3.17
2018-05-31T16:02:59.510Z,3.17
2018-05-31T16:05:25.874Z,4.07
2018-05-31T16:07:52.902Z,3.37
2018-05-31T16:10:19.312Z,3.47
2018-05-31T16:12:45.584Z,2.83
2018-05-31T16:15:12.623Z,3.20
2018-05-31T16:17:39.640Z,2.90
2018-05-31T16:20:05.930Z,3.37
2018-05-31T16:22:32.211Z,3.60
2018-05-31T16:24:58.486Z,3.93
2018-05-31T16:27:24.775Z,3.60
2018-05-31T16:29:51.060Z,4.30
2018-05-31T16:32:17.340Z,3.30
2018-05-31T16:34:43.618Z,3.23
2018-05-31T16:37:10.044Z,3.53
2018-05-31T16:39:37.397Z,3.33
2018-05-31T16:42:10.804Z,3.50
2018-05-31T16:44:37.171Z,3.63
2018-05-31T16:47:06.490Z,3.20
2018-05-31T16:49:51.097Z,3.13
2018-05-31T16:52:31.684Z,2.50
2018-05-31T16:55:03.012Z,2.77
2018-05-31T16:57:29.295Z,2.93
2018-05-31T17:00:11.099Z,3.17
2018-05-31T17:02:38.137Z,3.40
2018-05-31T17:05:04.481Z,3.50
2018-05-31T17:10:50.301Z,2.93
2018-05-31T17:13:16.585Z,3.70
2018-05-31T17:21:29.387Z,3.00
2018-05-31T17:24:02.853Z,3.40
2018-05-31T17:29:22.994Z,4.13
2018-05-31T17:31:50.072Z,3.83
2018-05-31T17:34:17.075Z,3.37
2018-05-31T17:36:44.171Z,3.40
2018-05-31T17:39:10.464Z,3.20
2018-05-31T17:41:37.477Z,3.30
2018-05-31T17:44:03.777Z,3.43
2018-05-31T17:46:34.005Z,3.73
2018-05-31T17:49:00.307Z,3.13
2018-05-31T17:51:27.338Z,3.73
2018-05-31T17:53:53.657Z,3.00
2018-05-31T17:56:19.936Z,3.30
2018-05-31T17:58:50.164Z,3.10
2018-05-31T18:01:16.451Z,3.47
2018-05-31T18:03:43.542Z,2.90
2018-05-31T18:06:09.824Z,3.73
2018-05-31T18:08:36.132Z,3.90
2018-05-31T18:11:02.468Z,3.57
2018-05-31T18:13:28.796Z,4.67
2018-05-31T18:15:56.095Z,2.97
2018-05-31T18:18:23.196Z,3.23
2018-05-31T18:20:49.575Z,2.80
2018-05-31T18:23:15.880Z,4.10
2018-05-31T18:25:42.215Z,2.90
2018-05-31T18:28:08.631Z,3.17
2018-05-31T18:30:38.975Z,3.30
2018-05-31T18:33:06.088Z,3.47
2018-05-31T18:35:32.402Z,3.00
2018-05-31T18:37:58.707Z,3.57
2018-05-31T18:40:25.719Z,3.63
2018-05-31T18:42:52.043Z,3.10
2018-05-31T18:45:18.356Z,3.10
2018-05-31T18:47:44.666Z,3.53
2018-05-31T18:50:11.718Z,4.07
2018-05-31T18:52:38.811Z,3.97
2018-05-31T18:55:05.128Z,3.10
2018-05-31T18:57:31.417Z,2.67
2018-05-31T18:59:58.437Z,2.80
2018-05-31T19:02:25.500Z,3.43
2018-05-31T19:04:51.840Z,2.87
2018-05-31T19:07:19.023Z,3.03
2018-05-31T19:09:45.338Z,2.80
2018-05-31T19:12:11.685Z,2.63
2018-05-31T19:14:37.966Z,2.73
2018-05-31T19:17:04.292Z,2.80
2018-05-31T19:19:36.836Z,2.57
2018-05-31T19:22:03.143Z,2.80
2018-05-31T19:24:35.849Z,3.00
2018-05-31T19:27:02.188Z,3.33
2018-05-31T19:29:28.499Z,3.07
2018-05-31T19:31:54.808Z,2.93
2018-05-31T19:34:21.818Z,2.53
2018-05-31T19:36:54.317Z,3.23
2018-05-31T19:39:21.364Z,3.10
2018-05-31T19:41:47.689Z,2.23
2018-05-31T19:44:20.263Z,3.80
2018-05-31T19:46:47.364Z,4.17
2018-05-31T19:49:13.676Z,3.80
2018-05-31T19:51:46.950Z,3.90
2018-05-31T19:54:13.987Z,3.93
2018-05-31T19:56:40.324Z,4.43
2018-05-31T19:59:12.782Z,4.40
2018-05-31T20:01:46.804Z,4.27
2018-05-31T20:04:13.081Z,4.43
2018-05-31T20:06:39.387Z,4.17
2018-05-31T20:09:06.471Z,4.63
2018-05-31T20:11:32.803Z,5.20
2018-05-31T20:13:59.123Z,5.43
2018-05-31T20:16:29.383Z,5.47
2018-05-31T20:18:55.763Z,5.30
2018-05-31T20:21:22.499Z,5.07
2018-05-31T20:23:49.103Z,5.53
2018-05-31T20:26:15.390Z,6.10
2018-05-31T20:28:43.703Z,5.70
2018-05-31T20:31:10.043Z,5.53
2018-05-31T20:33:36.327Z,5.87
2018-05-31T20:36:03.391Z,6.13
2018-05-31T20:38:29.732Z,6.50
2018-05-31T20:40:56.066Z,6.37
2018-05-31T20:43:22.397Z,5.53
2018-05-31T20:45:48.684Z,5.70
2018-05-31T20:48:15.711Z,4.73
2018-05-31T20:50:42.008Z,5.17
2018-05-31T20:53:08.305Z,4.73
2018-05-31T20:55:35.370Z,4.40
2018-05-31T20:58:01.696Z,4.57
2018-05-31T21:00:27.990Z,4.87
2018-05-31T21:02:55.064Z,4.13
2018-05-31T21:05:22.073Z,3.13
2018-05-31T21:07:48.376Z,3.43
2018-05-31T21:10:14.738Z,3.37
2018-05-31T21:12:41.069Z,3.10
2018-05-31T21:15:07.406Z,3.10
2018-05-31T21:17:37.551Z,3.13
2018-05-31T21:20:04.664Z,3.50
2018-05-31T21:22:30.974Z,3.13
2018-05-31T21:24:57.335Z,2.73
2018-05-31T21:27:23.668Z,2.60
2018-05-31T21:29:49.965Z,2.90
2018-05-31T21:32:17.083Z,2.80
2018-05-31T21:34:44.175Z,2.60
2018-05-31T21:37:10.467Z,2.70
2018-05-31T21:39:37.503Z,2.80
2018-05-31T21:42:04.563Z,1.90
2018-05-31T21:44:31.591Z,2.80
2018-05-31T21:46:57.869Z,2.80
2018-05-31T21:49:24.207Z,2.67
2018-05-31T21:51:51.232Z,2.50
2018-05-31T21:54:17.522Z,2.60
2018-05-31T21:56:43.948Z,2.67
2018-05-31T21:59:10.256Z,2.23
2018-05-31T22:01:36.620Z,2.30
2018-05-31T22:04:02.930Z,2.20
2018-05-31T22:06:30.292Z,2.73
2018-05-31T22:08:56.564Z,1.90
2018-05-31T22:11:23.619Z,1.73
2018-05-31T22:13:50.680Z,1.67
2018-05-31T22:16:17.027Z,2.00
2018-05-31T22:18:44.351Z,1.70
2018-05-31T22:21:10.649Z,1.40
2018-05-31T22:23:36.956Z,1.30
2018-05-31T22:26:03.271Z,1.20
2018-05-31T22:28:29.536Z,0.90
2018-05-31T22:30:55.876Z,0.70
2018-05-31T22:33:22.178Z,0.90
2018-05-31T22:35:48.491Z,1.07
2018-05-31T22:38:14.825Z,0.87
2018-05-31T22:40:41.215Z,0.90
2018-05-31T22:43:07.506Z,0.90
2018-05-31T22:45:33.817Z,1.03
2018-05-31T22:48:00.143Z,0.97
2018-05-31T22:50:26.450Z,0.90
2018-05-31T22:52:53.478Z,1.23
2018-05-31T22:55:19.800Z,1.30
2018-05-31T22:57:46.152Z,1.53
2018-05-31T23:00:12.491Z,1.17
2018-05-31T23:02:39.574Z,1.57
2018-05-31T23:05:06.608Z,1.53
2018-05-31T23:07:32.961Z,2.17
2018-05-31T23:09:59.296Z,2.17
2018-05-31T23:12:25.625Z,2.10
2018-05-31T23:14:51.919Z,2.00
2018-05-31T23:17:18.933Z,2.83
2018-05-31T23:19:45.264Z,2.90
2018-05-31T23:22:11.572Z,2.90
2018-05-31T23:24:37.844Z,2.70
2018-05-31T23:27:04.120Z,2.77
2018-05-31T23:29:30.434Z,2.43
2018-05-31T23:31:57.453Z,1.87
2018-05-31T23:34:23.752Z,2.10
2018-05-31T23:36:50.025Z,1.60
2018-05-31T23:39:16.317Z,1.93
2018-05-31T23:41:42.607Z,1.60
2018-05-31T23:44:08.895Z,1.77
2018-05-31T23:46:35.190Z,1.40
2018-05-31T23:49:01.476Z,1.10
2018-05-31T23:51:27.799Z,1.20
2018-05-31T23:53:54.172Z,1.30
2018-05-31T23:56:20.473Z,1.00
2018-05-31T23:58:46.779Z,1.33
